sensor_id;sensor_type;location;lat;lon;timestamp;temperature;humidity
1592;DHT22;789;51.612;7.510;2023-07-13T00:00:24;20.70;1.00
1592;DHT22;789;51.612;7.510;2023-07-13T00:02:51;20.80;1.00
1592;DHT22;789;51.612;7.510;2023-07-13T00:05:21;20.60;1.00
1592;DHT22;789;51.612;7.510;2023-07-13T00:07:48;20.50;1.00
1592;DHT22;789;51.612;7.510;2023-07-13T00:10:15;20.40;1.00
1592;DHT22;789;51.612;7.510;2023-07-13T00:12:43;20.40;1.00
1592;DHT22;789;51.612;7.510;2023-07-13T00:15:13;20.30;1.00
1592;DHT22;789;51.612;7.510;2023-07-13T00:17:41;20.30;1.00
1592;DHT22;789;51.612;7.510;2023-07-13T00:20:10;20.20;1.00
1592;DHT22;789;51.612;7.510;2023-07-13T00:22:39;20.10;1.00
1592;DHT22;789;51.612;7.510;2023-07-13T00:25:06;20.10;1.00
1592;DHT22;789;51.612;7.510;2023-07-13T00:27:33;20.10;1.00
1592;DHT22;789;51.612;7.510;2023-07-13T00:30:00;20.20;1.00
1592;DHT22;789;51.612;7.510;2023-07-13T00:32:28;20.10;1.00
1592;DHT22;789;51.612;7.510;2023-07-13T00:34:56;20.20;1.00
1592;DHT22;789;51.612;7.510;2023-07-13T00:37:23;20.10;1.00
1592;DHT22;789;51.612;7.510;2023-07-13T00:39:52;20.10;1.00
1592;DHT22;789;51.612;7.510;2023-07-13T00:42:18;20.10;1.00
1592;DHT22;789;51.612;7.510;2023-07-13T00:45:01;20.10;1.00
1592;DHT22;789;51.612;7.510;2023-07-13T00:47:27;20.10;1.00
1592;DHT22;789;51.612;7.510;2023-07-13T00:49:54;20.00;1.00
1592;DHT22;789;51.612;7.510;2023-07-13T00:52:21;20.00;1.00
1592;DHT22;789;51.612;7.510;2023-07-13T00:54:48;19.90;1.00
1592;DHT22;789;51.612;7.510;2023-07-13T00:57:18;19.80;1.00
1592;DHT22;789;51.612;7.510;2023-07-13T00:59:49;19.70;1.00
1592;DHT22;789;51.612;7.510;2023-07-13T01:02:17;19.70;1.00
1592;DHT22;789;51.612;7.510;2023-07-13T01:04:43;19.70;1.00
1592;DHT22;789;51.612;7.510;2023-07-13T01:07:11;19.70;1.00
1592;DHT22;789;51.612;7.510;2023-07-13T01:09:38;19.60;1.00
1592;DHT22;789;51.612;7.510;2023-07-13T01:12:06;19.50;1.00
1592;DHT22;789;51.612;7.510;2023-07-13T01:14:34;19.50;1.00
1592;DHT22;789;51.612;7.510;2023-07-13T01:17:01;19.50;1.00
1592;DHT22;789;51.612;7.510;2023-07-13T01:19:33;19.50;1.00
1592;DHT22;789;51.612;7.510;2023-07-13T01:22:05;19.50;1.00
1592;DHT22;789;51.612;7.510;2023-07-13T01:24:34;19.40;1.00
1592;DHT22;789;51.612;7.510;2023-07-13T01:27:01;19.40;1.00
1592;DHT22;789;51.612;7.510;2023-07-13T01:29:28;19.40;1.00
1592;DHT22;789;51.612;7.510;2023-07-13T01:31:55;19.30;1.00
1592;DHT22;789;51.612;7.510;2023-07-13T01:34:21;19.10;1.00
1592;DHT22;789;51.612;7.510;2023-07-13T01:36:48;19.00;1.00
1592;DHT22;789;51.612;7.510;2023-07-13T01:39:16;18.90;1.00
1592;DHT22;789;51.612;7.510;2023-07-13T01:41:43;18.90;1.00
1592;DHT22;789;51.612;7.510;2023-07-13T01:44:10;18.90;1.00
1592;DHT22;789;51.612;7.510;2023-07-13T01:46:36;18.90;1.00
1592;DHT22;789;51.612;7.510;2023-07-13T01:49:03;18.90;1.00
1592;DHT22;789;51.612;7.510;2023-07-13T01:51:30;18.80;1.00
1592;DHT22;789;51.612;7.510;2023-07-13T01:53:56;18.80;1.00
1592;DHT22;789;51.612;7.510;2023-07-13T01:56:25;18.80;1.00
1592;DHT22;789;51.612;7.510;2023-07-13T01:58:52;18.80;1.00
1592;DHT22;789;51.612;7.510;2023-07-13T02:01:18;18.80;1.00
1592;DHT22;789;51.612;7.510;2023-07-13T02:03:45;18.70;1.00
1592;DHT22;789;51.612;7.510;2023-07-13T02:06:12;18.70;1.00
1592;DHT22;789;51.612;7.510;2023-07-13T02:08:40;18.70;1.00
1592;DHT22;789;51.612;7.510;2023-07-13T02:11:07;18.70;1.00
1592;DHT22;789;51.612;7.510;2023-07-13T02:13:35;18.70;1.00
1592;DHT22;789;51.612;7.510;2023-07-13T02:16:02;18.80;1.00
1592;DHT22;789;51.612;7.510;2023-07-13T02:18:28;18.70;1.00
1592;DHT22;789;51.612;7.510;2023-07-13T02:20:55;18.70;1.00
1592;DHT22;789;51.612;7.510;2023-07-13T02:23:22;18.80;1.00
1592;DHT22;789;51.612;7.510;2023-07-13T02:25:49;18.70;1.00
1592;DHT22;789;51.612;7.510;2023-07-13T02:28:15;18.80;1.00
1592;DHT22;789;51.612;7.510;2023-07-13T02:30:43;18.70;1.00
1592;DHT22;789;51.612;7.510;2023-07-13T02:33:10;18.60;1.00
1592;DHT22;789;51.612;7.510;2023-07-13T02:35:37;18.60;1.00
1592;DHT22;789;51.612;7.510;2023-07-13T02:38:03;18.40;1.00
1592;DHT22;789;51.612;7.510;2023-07-13T02:40:30;18.40;1.00
1592;DHT22;789;51.612;7.510;2023-07-13T02:42:58;18.30;1.00
1592;DHT22;789;51.612;7.510;2023-07-13T02:45:25;18.20;1.00
1592;DHT22;789;51.612;7.510;2023-07-13T02:47:53;18.10;1.00
1592;DHT22;789;51.612;7.510;2023-07-13T02:50:20;18.20;1.00
1592;DHT22;789;51.612;7.510;2023-07-13T02:52:47;18.00;1.00
1592;DHT22;789;51.612;7.510;2023-07-13T02:55:13;18.00;1.00
1592;DHT22;789;51.612;7.510;2023-07-13T02:57:40;18.00;1.00
1592;DHT22;789;51.612;7.510;2023-07-13T03:00:08;17.90;1.00
1592;DHT22;789;51.612;7.510;2023-07-13T03:02:35;18.00;1.00
1592;DHT22;789;51.612;7.510;2023-07-13T03:05:04;18.10;1.00
1592;DHT22;789;51.612;7.510;2023-07-13T03:07:31;18.00;1.00
1592;DHT22;789;51.612;7.510;2023-07-13T03:09:58;18.00;1.00
1592;DHT22;789;51.612;7.510;2023-07-13T03:12:25;18.10;1.00
1592;DHT22;789;51.612;7.510;2023-07-13T03:14:52;18.00;1.00
1592;DHT22;789;51.612;7.510;2023-07-13T03:17:19;18.00;1.00
1592;DHT22;789;51.612;7.510;2023-07-13T03:19:45;18.10;1.00
1592;DHT22;789;51.612;7.510;2023-07-13T03:22:16;18.00;1.00
1592;DHT22;789;51.612;7.510;2023-07-13T03:24:43;18.00;1.00
1592;DHT22;789;51.612;7.510;2023-07-13T03:27:09;18.00;1.00
1592;DHT22;789;51.612;7.510;2023-07-13T03:29:36;17.90;1.00
1592;DHT22;789;51.612;7.510;2023-07-13T03:32:03;17.90;1.00
1592;DHT22;789;51.612;7.510;2023-07-13T03:34:30;18.00;1.00
1592;DHT22;789;51.612;7.510;2023-07-13T03:36:58;18.10;1.00
1592;DHT22;789;51.612;7.510;2023-07-13T03:39:26;18.10;1.00
1592;DHT22;789;51.612;7.510;2023-07-13T03:41:53;18.10;1.00
1592;DHT22;789;51.612;7.510;2023-07-13T03:44:19;18.20;1.00
1592;DHT22;789;51.612;7.510;2023-07-13T03:46:46;18.20;1.00
1592;DHT22;789;51.612;7.510;2023-07-13T03:49:13;18.20;1.00
1592;DHT22;789;51.612;7.510;2023-07-13T03:51:39;18.20;1.00
1592;DHT22;789;51.612;7.510;2023-07-13T03:54:06;18.20;1.00
1592;DHT22;789;51.612;7.510;2023-07-13T03:56:34;18.10;1.00
1592;DHT22;789;51.612;7.510;2023-07-13T03:59:01;18.10;1.00
1592;DHT22;789;51.612;7.510;2023-07-13T04:01:28;18.10;1.00
1592;DHT22;789;51.612;7.510;2023-07-13T04:03:55;18.10;1.00
1592;DHT22;789;51.612;7.510;2023-07-13T04:06:25;18.10;1.00
1592;DHT22;789;51.612;7.510;2023-07-13T04:08:53;18.20;1.00
1592;DHT22;789;51.612;7.510;2023-07-13T04:11:22;18.10;1.00
1592;DHT22;789;51.612;7.510;2023-07-13T04:13:50;18.20;1.00
1592;DHT22;789;51.612;7.510;2023-07-13T04:16:18;18.20;1.00
1592;DHT22;789;51.612;7.510;2023-07-13T04:18:46;18.30;1.00
1592;DHT22;789;51.612;7.510;2023-07-13T04:21:13;18.20;1.00
1592;DHT22;789;51.612;7.510;2023-07-13T04:23:40;18.20;1.00
1592;DHT22;789;51.612;7.510;2023-07-13T04:26:07;18.20;1.00
1592;DHT22;789;51.612;7.510;2023-07-13T04:28:34;18.30;1.00
1592;DHT22;789;51.612;7.510;2023-07-13T04:31:02;18.30;1.00
1592;DHT22;789;51.612;7.510;2023-07-13T04:33:29;18.30;1.00
1592;DHT22;789;51.612;7.510;2023-07-13T04:35:56;18.30;1.00
1592;DHT22;789;51.612;7.510;2023-07-13T04:38:26;18.30;1.00
1592;DHT22;789;51.612;7.510;2023-07-13T04:40:55;18.40;1.00
1592;DHT22;789;51.612;7.510;2023-07-13T04:43:22;18.40;1.00
1592;DHT22;789;51.612;7.510;2023-07-13T04:45:50;18.40;1.00
1592;DHT22;789;51.612;7.510;2023-07-13T04:48:18;18.50;1.00
1592;DHT22;789;51.612;7.510;2023-07-13T04:50:45;18.40;1.00
1592;DHT22;789;51.612;7.510;2023-07-13T04:53:12;18.40;1.00
1592;DHT22;789;51.612;7.510;2023-07-13T04:55:39;18.50;1.00
1592;DHT22;789;51.612;7.510;2023-07-13T04:58:12;18.60;1.00
1592;DHT22;789;51.612;7.510;2023-07-13T05:00:39;18.70;1.00
1592;DHT22;789;51.612;7.510;2023-07-13T05:03:07;18.80;1.00
1592;DHT22;789;51.612;7.510;2023-07-13T05:05:36;18.90;1.00
1592;DHT22;789;51.612;7.510;2023-07-13T05:08:03;19.00;1.00
1592;DHT22;789;51.612;7.510;2023-07-13T05:10:29;19.00;1.00
1592;DHT22;789;51.612;7.510;2023-07-13T05:12:56;19.10;1.00
1592;DHT22;789;51.612;7.510;2023-07-13T05:15:23;19.30;1.00
1592;DHT22;789;51.612;7.510;2023-07-13T05:17:50;19.40;1.00
1592;DHT22;789;51.612;7.510;2023-07-13T05:20:18;19.50;1.00
1592;DHT22;789;51.612;7.510;2023-07-13T05:22:46;19.50;1.00
1592;DHT22;789;51.612;7.510;2023-07-13T05:25:16;19.50;1.00
1592;DHT22;789;51.612;7.510;2023-07-13T05:27:43;19.40;1.00
1592;DHT22;789;51.612;7.510;2023-07-13T05:30:11;19.60;1.00
1592;DHT22;789;51.612;7.510;2023-07-13T05:32:41;19.70;1.00
1592;DHT22;789;51.612;7.510;2023-07-13T05:35:08;19.70;1.00
1592;DHT22;789;51.612;7.510;2023-07-13T05:37:36;19.70;1.00
1592;DHT22;789;51.612;7.510;2023-07-13T05:40:06;19.70;1.00
1592;DHT22;789;51.612;7.510;2023-07-13T05:42:32;19.70;1.00
1592;DHT22;789;51.612;7.510;2023-07-13T05:44:59;19.70;1.00
1592;DHT22;789;51.612;7.510;2023-07-13T05:47:26;19.70;1.00
1592;DHT22;789;51.612;7.510;2023-07-13T05:49:53;19.60;1.00
1592;DHT22;789;51.612;7.510;2023-07-13T05:52:20;19.60;1.00
1592;DHT22;789;51.612;7.510;2023-07-13T05:54:46;19.70;1.00
1592;DHT22;789;51.612;7.510;2023-07-13T05:57:14;19.80;1.00
1592;DHT22;789;51.612;7.510;2023-07-13T05:59:41;19.90;1.00
1592;DHT22;789;51.612;7.510;2023-07-13T06:02:09;19.90;1.00
1592;DHT22;789;51.612;7.510;2023-07-13T06:04:36;20.10;1.00
1592;DHT22;789;51.612;7.510;2023-07-13T06:07:05;20.10;1.00
1592;DHT22;789;51.612;7.510;2023-07-13T06:09:31;20.10;1.00
1592;DHT22;789;51.612;7.510;2023-07-13T06:11:58;20.10;1.00
1592;DHT22;789;51.612;7.510;2023-07-13T06:14:26;20.10;1.00
1592;DHT22;789;51.612;7.510;2023-07-13T06:16:53;20.10;1.00
1592;DHT22;789;51.612;7.510;2023-07-13T06:19:20;20.30;1.00
1592;DHT22;789;51.612;7.510;2023-07-13T06:21:46;20.40;1.00
1592;DHT22;789;51.612;7.510;2023-07-13T06:24:13;20.60;1.00
1592;DHT22;789;51.612;7.510;2023-07-13T06:26:40;21.00;1.00
1592;DHT22;789;51.612;7.510;2023-07-13T06:29:07;21.00;1.00
1592;DHT22;789;51.612;7.510;2023-07-13T06:31:35;21.10;1.00
1592;DHT22;789;51.612;7.510;2023-07-13T06:34:01;21.20;1.00
1592;DHT22;789;51.612;7.510;2023-07-13T06:36:28;21.00;1.00
1592;DHT22;789;51.612;7.510;2023-07-13T06:38:55;21.10;1.00
1592;DHT22;789;51.612;7.510;2023-07-13T06:41:22;21.30;1.00
1592;DHT22;789;51.612;7.510;2023-07-13T06:43:51;21.30;1.00
1592;DHT22;789;51.612;7.510;2023-07-13T06:46:21;21.10;1.00
1592;DHT22;789;51.612;7.510;2023-07-13T06:48:49;21.10;1.00
1592;DHT22;789;51.612;7.510;2023-07-13T06:51:16;21.00;1.00
1592;DHT22;789;51.612;7.510;2023-07-13T06:53:43;21.20;1.00
1592;DHT22;789;51.612;7.510;2023-07-13T06:56:10;21.40;1.00
1592;DHT22;789;51.612;7.510;2023-07-13T06:58:37;21.70;1.00
1592;DHT22;789;51.612;7.510;2023-07-13T07:01:04;22.00;1.00
1592;DHT22;789;51.612;7.510;2023-07-13T07:03:31;22.20;1.00
1592;DHT22;789;51.612;7.510;2023-07-13T07:06:01;22.50;1.00
1592;DHT22;789;51.612;7.510;2023-07-13T07:08:28;23.00;1.00
1592;DHT22;789;51.612;7.510;2023-07-13T07:10:55;23.40;1.00
1592;DHT22;789;51.612;7.510;2023-07-13T07:13:21;23.70;1.00
1592;DHT22;789;51.612;7.510;2023-07-13T07:15:50;24.00;1.00
1592;DHT22;789;51.612;7.510;2023-07-13T07:18:16;24.30;1.00
1592;DHT22;789;51.612;7.510;2023-07-13T07:20:43;24.50;1.00
1592;DHT22;789;51.612;7.510;2023-07-13T07:23:11;24.50;1.00
1592;DHT22;789;51.612;7.510;2023-07-13T07:25:38;24.70;1.00
1592;DHT22;789;51.612;7.510;2023-07-13T07:28:07;24.80;1.00
1592;DHT22;789;51.612;7.510;2023-07-13T07:30:34;24.70;1.00
1592;DHT22;789;51.612;7.510;2023-07-13T07:33:01;24.70;1.00
1592;DHT22;789;51.612;7.510;2023-07-13T07:35:27;24.80;1.00
1592;DHT22;789;51.612;7.510;2023-07-13T07:37:54;24.90;1.00
1592;DHT22;789;51.612;7.510;2023-07-13T07:40:22;25.10;1.00
1592;DHT22;789;51.612;7.510;2023-07-13T07:42:49;25.20;1.00
1592;DHT22;789;51.612;7.510;2023-07-13T07:45:16;25.40;1.00
1592;DHT22;789;51.612;7.510;2023-07-13T07:47:42;25.50;1.00
1592;DHT22;789;51.612;7.510;2023-07-13T07:50:10;26.00;1.00
1592;DHT22;789;51.612;7.510;2023-07-13T07:52:37;26.60;1.00
1592;DHT22;789;51.612;7.510;2023-07-13T07:55:05;27.10;1.00
1592;DHT22;789;51.612;7.510;2023-07-13T07:57:33;27.50;1.00
1592;DHT22;789;51.612;7.510;2023-07-13T08:00:00;28.00;1.00
1592;DHT22;789;51.612;7.510;2023-07-13T08:02:27;28.20;1.00
1592;DHT22;789;51.612;7.510;2023-07-13T08:04:53;28.30;1.00
1592;DHT22;789;51.612;7.510;2023-07-13T08:07:20;28.30;1.00
1592;DHT22;789;51.612;7.510;2023-07-13T08:09:47;28.30;1.00
1592;DHT22;789;51.612;7.510;2023-07-13T08:12:17;28.40;1.00
1592;DHT22;789;51.612;7.510;2023-07-13T08:14:46;28.50;1.00
1592;DHT22;789;51.612;7.510;2023-07-13T08:17:16;28.40;1.00
1592;DHT22;789;51.612;7.510;2023-07-13T08:19:42;28.40;1.00
1592;DHT22;789;51.612;7.510;2023-07-13T08:22:09;28.40;1.00
1592;DHT22;789;51.612;7.510;2023-07-13T08:24:36;28.80;1.00
1592;DHT22;789;51.612;7.510;2023-07-13T08:27:03;29.00;1.00
1592;DHT22;789;51.612;7.510;2023-07-13T08:29:29;29.30;1.00
1592;DHT22;789;51.612;7.510;2023-07-13T08:31:58;29.40;1.00
1592;DHT22;789;51.612;7.510;2023-07-13T08:34:25;29.10;1.00
1592;DHT22;789;51.612;7.510;2023-07-13T08:36:52;29.60;1.00
1592;DHT22;789;51.612;7.510;2023-07-13T08:39:18;30.10;1.00
1592;DHT22;789;51.612;7.510;2023-07-13T08:41:47;30.90;1.00
1592;DHT22;789;51.612;7.510;2023-07-13T08:44:21;31.90;1.00
1592;DHT22;789;51.612;7.510;2023-07-13T08:46:51;33.10;1.00
1592;DHT22;789;51.612;7.510;2023-07-13T08:49:21;33.70;1.00
1592;DHT22;789;51.612;7.510;2023-07-13T08:51:51;33.20;1.00
1592;DHT22;789;51.612;7.510;2023-07-13T08:54:22;33.40;1.00
1592;DHT22;789;51.612;7.510;2023-07-13T08:56:53;34.10;1.00
1592;DHT22;789;51.612;7.510;2023-07-13T08:59:22;34.30;1.00
1592;DHT22;789;51.612;7.510;2023-07-13T09:02:00;33.40;1.00
1592;DHT22;789;51.612;7.510;2023-07-13T09:04:37;33.20;1.00
1592;DHT22;789;51.612;7.510;2023-07-13T09:07:14;33.30;1.00
1592;DHT22;789;51.612;7.510;2023-07-13T09:09:53;33.70;1.00
1592;DHT22;789;51.612;7.510;2023-07-13T09:12:27;33.90;1.00
1592;DHT22;789;51.612;7.510;2023-07-13T09:14:59;34.10;1.00
1592;DHT22;789;51.612;7.510;2023-07-13T09:17:33;35.00;1.00
1592;DHT22;789;51.612;7.510;2023-07-13T09:20:09;35.40;1.00
1592;DHT22;789;51.612;7.510;2023-07-13T09:22:37;35.30;1.00
1592;DHT22;789;51.612;7.510;2023-07-13T09:25:18;35.00;1.00
1592;DHT22;789;51.612;7.510;2023-07-13T09:27:48;34.20;1.00
1592;DHT22;789;51.612;7.510;2023-07-13T09:30:27;34.20;1.00
1592;DHT22;789;51.612;7.510;2023-07-13T09:32:57;34.50;1.00
1592;DHT22;789;51.612;7.510;2023-07-13T09:35:27;34.60;1.00
1592;DHT22;789;51.612;7.510;2023-07-13T09:37:59;34.80;1.00
1592;DHT22;789;51.612;7.510;2023-07-13T09:40:38;34.30;1.00
1592;DHT22;789;51.612;7.510;2023-07-13T09:43:08;34.10;1.00
1592;DHT22;789;51.612;7.510;2023-07-13T09:45:37;34.40;1.00
1592;DHT22;789;51.612;7.510;2023-07-13T09:48:06;34.40;1.00
1592;DHT22;789;51.612;7.510;2023-07-13T09:50:34;34.20;1.00
1592;DHT22;789;51.612;7.510;2023-07-13T09:53:02;34.00;1.00
1592;DHT22;789;51.612;7.510;2023-07-13T09:55:31;32.80;1.00
1592;DHT22;789;51.612;7.510;2023-07-13T09:58:03;31.80;1.00
1592;DHT22;789;51.612;7.510;2023-07-13T10:00:31;30.90;1.00
1592;DHT22;789;51.612;7.510;2023-07-13T10:03:03;30.70;1.00
1592;DHT22;789;51.612;7.510;2023-07-13T10:05:40;30.50;1.00
1592;DHT22;789;51.612;7.510;2023-07-13T10:08:17;30.50;1.00
1592;DHT22;789;51.612;7.510;2023-07-13T10:10:44;31.40;1.00
1592;DHT22;789;51.612;7.510;2023-07-13T10:13:29;31.50;1.00
1592;DHT22;789;51.612;7.510;2023-07-13T10:15:58;31.50;1.00
1592;DHT22;789;51.612;7.510;2023-07-13T10:18:25;32.20;1.00
1592;DHT22;789;51.612;7.510;2023-07-13T10:21:00;32.90;1.00
1592;DHT22;789;51.612;7.510;2023-07-13T10:23:35;32.80;1.00
1592;DHT22;789;51.612;7.510;2023-07-13T10:26:03;33.50;1.00
1592;DHT22;789;51.612;7.510;2023-07-13T10:28:36;34.20;1.00
1592;DHT22;789;51.612;7.510;2023-07-13T10:31:05;34.40;1.00
1592;DHT22;789;51.612;7.510;2023-07-13T10:33:35;34.80;1.00
1592;DHT22;789;51.612;7.510;2023-07-13T10:36:13;34.30;1.00
1592;DHT22;789;51.612;7.510;2023-07-13T10:38:41;33.40;1.00
1592;DHT22;789;51.612;7.510;2023-07-13T10:41:11;32.50;1.00
1592;DHT22;789;51.612;7.510;2023-07-13T10:43:43;32.30;1.00
1592;DHT22;789;51.612;7.510;2023-07-13T10:46:12;33.10;1.00
1592;DHT22;789;51.612;7.510;2023-07-13T10:48:40;34.30;1.00
1592;DHT22;789;51.612;7.510;2023-07-13T10:51:10;35.60;1.00
1592;DHT22;789;51.612;7.510;2023-07-13T10:53:39;36.50;1.00
1592;DHT22;789;51.612;7.510;2023-07-13T10:56:14;35.90;1.00
1592;DHT22;789;51.612;7.510;2023-07-13T10:58:45;34.70;1.00
1592;DHT22;789;51.612;7.510;2023-07-13T11:01:14;33.60;1.00
1592;DHT22;789;51.612;7.510;2023-07-13T11:03:49;32.50;1.00
1592;DHT22;789;51.612;7.510;2023-07-13T11:06:31;31.40;1.00
1592;DHT22;789;51.612;7.510;2023-07-13T11:09:19;30.40;1.00
1592;DHT22;789;51.612;7.510;2023-07-13T11:11:46;29.60;1.00
1592;DHT22;789;51.612;7.510;2023-07-13T11:14:34;29.90;1.00
1592;DHT22;789;51.612;7.510;2023-07-13T11:17:24;31.10;1.00
1592;DHT22;789;51.612;7.510;2023-07-13T11:20:10;32.40;1.00
1592;DHT22;789;51.612;7.510;2023-07-13T11:22:49;33.80;1.00
1592;DHT22;789;51.612;7.510;2023-07-13T11:25:28;33.10;1.00
1592;DHT22;789;51.612;7.510;2023-07-13T11:28:16;32.50;1.00
1592;DHT22;789;51.612;7.510;2023-07-13T11:30:47;32.30;1.00
1592;DHT22;789;51.612;7.510;2023-07-13T11:33:16;32.00;1.00
1592;DHT22;789;51.612;7.510;2023-07-13T11:38:33;31.90;1.00
1592;DHT22;789;51.612;7.510;2023-07-13T11:41:03;32.50;1.00
1592;DHT22;789;51.612;7.510;2023-07-13T11:43:30;32.90;1.00
1592;DHT22;789;51.612;7.510;2023-07-13T11:46:11;33.20;1.00
1592;DHT22;789;51.612;7.510;2023-07-13T11:48:38;33.30;1.00
1592;DHT22;789;51.612;7.510;2023-07-13T11:51:06;32.80;1.00
1592;DHT22;789;51.612;7.510;2023-07-13T11:53:39;32.10;1.00
1592;DHT22;789;51.612;7.510;2023-07-13T11:56:07;31.70;1.00
1592;DHT22;789;51.612;7.510;2023-07-13T11:58:35;30.90;1.00
1592;DHT22;789;51.612;7.510;2023-07-13T12:01:03;30.40;1.00
1592;DHT22;789;51.612;7.510;2023-07-13T12:03:34;29.60;1.00
1592;DHT22;789;51.612;7.510;2023-07-13T12:06:03;29.10;1.00
1592;DHT22;789;51.612;7.510;2023-07-13T12:08:32;28.70;1.00
1592;DHT22;789;51.612;7.510;2023-07-13T12:11:14;28.40;1.00
1592;DHT22;789;51.612;7.510;2023-07-13T12:13:41;28.00;1.00
1592;DHT22;789;51.612;7.510;2023-07-13T12:16:14;27.70;1.00
1592;DHT22;789;51.612;7.510;2023-07-13T12:18:43;27.60;1.00
1592;DHT22;789;51.612;7.510;2023-07-13T12:21:13;27.50;1.00
1592;DHT22;789;51.612;7.510;2023-07-13T12:23:44;27.20;1.00
1592;DHT22;789;51.612;7.510;2023-07-13T12:26:17;27.10;1.00
1592;DHT22;789;51.612;7.510;2023-07-13T12:28:47;27.00;1.00
1592;DHT22;789;51.612;7.510;2023-07-13T12:31:25;27.10;1.00
1592;DHT22;789;51.612;7.510;2023-07-13T12:34:00;27.10;1.00
1592;DHT22;789;51.612;7.510;2023-07-13T12:36:31;27.20;1.00
1592;DHT22;789;51.612;7.510;2023-07-13T12:39:11;27.00;1.00
1592;DHT22;789;51.612;7.510;2023-07-13T12:41:41;26.90;1.00
1592;DHT22;789;51.612;7.510;2023-07-13T12:44:11;26.70;1.00
1592;DHT22;789;51.612;7.510;2023-07-13T12:46:38;26.80;1.00
1592;DHT22;789;51.612;7.510;2023-07-13T12:49:06;26.80;1.00
1592;DHT22;789;51.612;7.510;2023-07-13T12:51:34;26.90;1.00
1592;DHT22;789;51.612;7.510;2023-07-13T12:54:08;26.90;1.00
1592;DHT22;789;51.612;7.510;2023-07-13T12:56:40;26.90;1.00
1592;DHT22;789;51.612;7.510;2023-07-13T12:59:17;27.00;1.00
1592;DHT22;789;51.612;7.510;2023-07-13T13:01:45;26.90;1.00
1592;DHT22;789;51.612;7.510;2023-07-13T13:04:12;26.90;1.00
1592;DHT22;789;51.612;7.510;2023-07-13T13:06:39;26.90;1.00
1592;DHT22;789;51.612;7.510;2023-07-13T13:09:12;27.10;1.00
1592;DHT22;789;51.612;7.510;2023-07-13T13:11:41;27.10;1.00
1592;DHT22;789;51.612;7.510;2023-07-13T13:14:08;27.20;1.00
1592;DHT22;789;51.612;7.510;2023-07-13T13:16:37;27.30;1.00
1592;DHT22;789;51.612;7.510;2023-07-13T13:19:13;27.40;1.00
1592;DHT22;789;51.612;7.510;2023-07-13T13:21:40;27.50;1.00
1592;DHT22;789;51.612;7.510;2023-07-13T13:24:11;27.60;1.00
1592;DHT22;789;51.612;7.510;2023-07-13T13:26:37;27.60;1.00
1592;DHT22;789;51.612;7.510;2023-07-13T13:29:11;27.70;1.00
1592;DHT22;789;51.612;7.510;2023-07-13T13:31:39;27.70;1.00
1592;DHT22;789;51.612;7.510;2023-07-13T13:34:09;27.60;1.00
1592;DHT22;789;51.612;7.510;2023-07-13T13:36:36;27.50;1.00
1592;DHT22;789;51.612;7.510;2023-07-13T13:39:04;27.30;1.00
1592;DHT22;789;51.612;7.510;2023-07-13T13:41:32;27.00;1.00
1592;DHT22;789;51.612;7.510;2023-07-13T13:43:58;26.60;1.00
1592;DHT22;789;51.612;7.510;2023-07-13T13:46:31;26.20;1.00
1592;DHT22;789;51.612;7.510;2023-07-13T13:48:58;25.40;1.00
1592;DHT22;789;51.612;7.510;2023-07-13T13:51:26;24.80;1.00
1592;DHT22;789;51.612;7.510;2023-07-13T13:53:52;24.30;1.00
1592;DHT22;789;51.612;7.510;2023-07-13T13:56:20;23.90;1.00
1592;DHT22;789;51.612;7.510;2023-07-13T13:58:47;23.50;1.00
1592;DHT22;789;51.612;7.510;2023-07-13T14:01:17;23.10;1.00
1592;DHT22;789;51.612;7.510;2023-07-13T14:03:45;22.80;1.00
1592;DHT22;789;51.612;7.510;2023-07-13T14:06:15;22.50;1.00
1592;DHT22;789;51.612;7.510;2023-07-13T14:08:42;22.20;1.00
1592;DHT22;789;51.612;7.510;2023-07-13T14:11:11;22.00;1.00
1592;DHT22;789;51.612;7.510;2023-07-13T14:13:42;21.80;1.00
1592;DHT22;789;51.612;7.510;2023-07-13T14:16:11;21.70;1.00
1592;DHT22;789;51.612;7.510;2023-07-13T14:18:39;21.60;1.00
1592;DHT22;789;51.612;7.510;2023-07-13T14:21:12;21.50;1.00
1592;DHT22;789;51.612;7.510;2023-07-13T14:23:39;21.70;1.00
1592;DHT22;789;51.612;7.510;2023-07-13T14:26:10;21.90;1.00
1592;DHT22;789;51.612;7.510;2023-07-13T14:28:39;22.10;1.00
1592;DHT22;789;51.612;7.510;2023-07-13T14:31:07;22.30;1.00
1592;DHT22;789;51.612;7.510;2023-07-13T14:33:34;22.50;1.00
1592;DHT22;789;51.612;7.510;2023-07-13T14:36:01;22.80;1.00
1592;DHT22;789;51.612;7.510;2023-07-13T14:38:29;22.90;1.00
1592;DHT22;789;51.612;7.510;2023-07-13T14:40:56;23.00;1.00
1592;DHT22;789;51.612;7.510;2023-07-13T14:43:23;23.10;1.00
1592;DHT22;789;51.612;7.510;2023-07-13T14:45:53;23.20;1.00
1592;DHT22;789;51.612;7.510;2023-07-13T14:48:22;23.20;1.00
1592;DHT22;789;51.612;7.510;2023-07-13T14:50:54;23.40;1.00
1592;DHT22;789;51.612;7.510;2023-07-13T14:53:22;23.40;1.00
1592;DHT22;789;51.612;7.510;2023-07-13T14:55:50;23.60;1.00
1592;DHT22;789;51.612;7.510;2023-07-13T14:58:17;23.60;1.00
1592;DHT22;789;51.612;7.510;2023-07-13T15:00:44;23.70;1.00
1592;DHT22;789;51.612;7.510;2023-07-13T15:03:18;23.80;1.00
1592;DHT22;789;51.612;7.510;2023-07-13T15:05:47;23.80;1.00
1592;DHT22;789;51.612;7.510;2023-07-13T15:08:15;23.70;1.00
1592;DHT22;789;51.612;7.510;2023-07-13T15:10:42;23.80;1.00
1592;DHT22;789;51.612;7.510;2023-07-13T15:13:18;23.50;1.00
1592;DHT22;789;51.612;7.510;2023-07-13T15:15:49;23.40;1.00
1592;DHT22;789;51.612;7.510;2023-07-13T15:18:19;23.20;1.00
1592;DHT22;789;51.612;7.510;2023-07-13T15:20:48;22.90;1.00
1592;DHT22;789;51.612;7.510;2023-07-13T15:23:16;22.70;1.00
1592;DHT22;789;51.612;7.510;2023-07-13T15:25:44;22.60;1.00
1592;DHT22;789;51.612;7.510;2023-07-13T15:28:11;22.70;1.00
1592;DHT22;789;51.612;7.510;2023-07-13T15:30:41;22.70;1.00
1592;DHT22;789;51.612;7.510;2023-07-13T15:33:12;22.90;1.00
1592;DHT22;789;51.612;7.510;2023-07-13T15:35:40;22.90;1.00
1592;DHT22;789;51.612;7.510;2023-07-13T15:38:14;22.90;1.00
1592;DHT22;789;51.612;7.510;2023-07-13T15:40:44;23.10;1.00
1592;DHT22;789;51.612;7.510;2023-07-13T15:43:14;23.20;1.00
1592;DHT22;789;51.612;7.510;2023-07-13T15:45:43;23.10;1.00
1592;DHT22;789;51.612;7.510;2023-07-13T15:48:16;23.20;1.00
1592;DHT22;789;51.612;7.510;2023-07-13T15:50:45;23.40;1.00
1592;DHT22;789;51.612;7.510;2023-07-13T15:53:14;23.60;1.00
1592;DHT22;789;51.612;7.510;2023-07-13T15:55:41;23.50;1.00
1592;DHT22;789;51.612;7.510;2023-07-13T15:58:12;23.60;1.00
1592;DHT22;789;51.612;7.510;2023-07-13T16:00:42;23.50;1.00
1592;DHT22;789;51.612;7.510;2023-07-13T16:03:10;23.50;1.00
1592;DHT22;789;51.612;7.510;2023-07-13T16:05:38;23.40;1.00
1592;DHT22;789;51.612;7.510;2023-07-13T16:08:06;23.50;1.00
1592;DHT22;789;51.612;7.510;2023-07-13T16:10:42;23.60;1.00
1592;DHT22;789;51.612;7.510;2023-07-13T16:13:13;23.80;1.00
1592;DHT22;789;51.612;7.510;2023-07-13T16:15:42;23.80;1.00
1592;DHT22;789;51.612;7.510;2023-07-13T16:18:10;23.90;1.00
1592;DHT22;789;51.612;7.510;2023-07-13T16:20:37;23.90;1.00
1592;DHT22;789;51.612;7.510;2023-07-13T16:23:04;23.90;1.00
1592;DHT22;789;51.612;7.510;2023-07-13T16:28:35;23.80;1.00
1592;DHT22;789;51.612;7.510;2023-07-13T16:31:03;23.70;1.00
1592;DHT22;789;51.612;7.510;2023-07-13T16:33:33;23.40;1.00
1592;DHT22;789;51.612;7.510;2023-07-13T16:35:59;23.10;1.00
1592;DHT22;789;51.612;7.510;2023-07-13T16:38:29;22.80;1.00
1592;DHT22;789;51.612;7.510;2023-07-13T16:41:01;22.50;1.00
1592;DHT22;789;51.612;7.510;2023-07-13T16:43:40;21.90;1.00
1592;DHT22;789;51.612;7.510;2023-07-13T16:46:25;22.40;1.00
1592;DHT22;789;51.612;7.510;2023-07-13T16:48:52;21.50;1.00
1592;DHT22;789;51.612;7.510;2023-07-13T16:51:20;21.70;1.00